Time;durP1;ratioP1;P1;durP2;ratioP2;P2;SDS_P1;SDS_P2;PMS_P1;PMS_P2;Temp;Humidity;BMP_temperature;BMP_pressure;BME280_temperature;BME280_humidity;BME280_pressure;Samples;Min_cycle;Max_cycle;Signal;HPM_P1;HPM_P2
2021/11/29 00:00:36;;;;;;;;;;;;;;;-144.99;100.00;52637.66;5050570;28;19985;-61
2021/11/29 00:03:04;;;;;;;;;;;;;;;-144.99;100.00;52639.69;5049412;28;20159;-61
2021/11/29 00:05:31;;;;;;;;;;;;;;;-144.99;100.00;52670.28;5049798;28;20031;-62
2021/11/29 00:08:00;;;;;;;;;;;;;;;-144.99;100.00;52676.38;5049281;28;19989;-61
2021/11/29 00:10:26;;;;;;;;;;;;;;;-144.99;100.00;52688.63;5049749;28;20043;-61
2021/11/29 00:12:53;;;;;;;;;;;;;;;-144.99;100.00;52635.63;5048279;28;20032;-64
2021/11/29 00:15:20;;;;;;;;;;;;;;;-144.99;100.00;52670.28;5049784;28;19977;-67
2021/11/29 00:17:47;;;;;;;;;;;;;;;-144.99;100.00;52700.84;5051234;28;20278;-66
2021/11/29 00:20:14;;;;;;;;;;;;;;;-144.99;100.00;52643.78;5046894;28;19929;-65
2021/11/29 00:22:41;;;;;;;;;;;;;;;-144.99;100.00;52631.53;5050620;28;19985;-66
2021/11/29 00:25:08;;;;;;;;;;;;;;;-144.99;100.00;52694.72;5051501;28;20392;-65
2021/11/29 00:27:36;;;;;;;;;;;;;;;-144.99;100.00;52623.38;5053016;28;19981;-67
2021/11/29 00:30:03;;;;;;;;;;;;;;;-144.99;100.00;52692.69;5051722;28;19988;-67
2021/11/29 00:32:29;;;;;;;;;;;;;;;-144.99;100.00;52688.63;5049286;28;20001;-66
2021/11/29 00:34:57;;;;;;;;;;;;;;;-144.99;100.00;52656.00;5045771;28;20133;-66
2021/11/29 00:37:24;;;;;;;;;;;;;;;-144.99;100.00;52694.72;5046437;28;19985;-66
2021/11/29 00:39:51;;;;;;;;;;;;;;;-144.99;100.00;52688.63;5049389;28;19981;-66
2021/11/29 00:42:18;;;;;;;;;;;;;;;-144.99;100.00;52651.94;5048324;28;20027;-66
2021/11/29 00:44:44;;;;;;;;;;;;;;;-144.99;100.00;52692.69;5047266;28;20001;-66
2021/11/29 00:47:11;;;;;;;;;;;;;;;-144.99;100.00;52690.66;5048815;28;19992;-65
2021/11/29 00:49:37;;;;;;;;;;;;;;;-144.99;100.00;52639.69;5048818;28;19985;-63
2021/11/29 00:52:06;;;;;;;;;;;;;;;-144.99;100.00;52678.44;5048641;28;20501;-65
2021/11/29 00:54:32;;;;;;;;;;;;;;;-144.99;100.00;52656.00;5047709;28;20047;-66
2021/11/29 00:56:59;;;;;;;;;;;;;;;-144.99;100.00;52684.53;5046137;28;19985;-65
2021/11/29 00:59:25;;;;;;;;;;;;;;;-144.99;100.00;52688.63;5048572;28;20054;-66
2021/11/29 01:01:52;;;;;;;;;;;;;;;-144.99;100.00;52651.94;5048890;28;20388;-66
2021/11/29 01:04:18;;;;;;;;;;;;;;;-144.99;100.00;52668.22;5047684;28;20011;-65
2021/11/29 01:06:45;;;;;;;;;;;;;;;-144.99;100.00;52690.66;5047212;28;19982;-66
2021/11/29 01:09:13;;;;;;;;;;;;;;;-144.99;100.00;52660.09;5048595;28;19977;-66
2021/11/29 01:11:40;;;;;;;;;;;;;;;-144.99;100.00;52676.38;5048799;28;19981;-65
2021/11/29 01:14:06;;;;;;;;;;;;;;;-144.99;100.00;52647.84;5047426;28;19997;-64
2021/11/29 01:16:33;;;;;;;;;;;;;;;-144.99;100.00;52684.53;5047273;28;20005;-64
2021/11/29 01:18:59;;;;;;;;;;;;;;;-144.99;100.00;52672.31;5048746;28;19988;-62
2021/11/29 01:21:26;;;;;;;;;;;;;;;-144.99;100.00;52637.66;5048527;28;19977;-64
2021/11/29 01:23:53;;;;;;;;;;;;;;;-144.99;100.00;52668.22;5048265;28;20040;-64
2021/11/29 01:26:21;;;;;;;;;;;;;;;-144.99;100.00;52651.94;5046938;28;19981;-62
2021/11/29 01:28:47;;;;;;;;;;;;;;;-144.99;100.00;52668.22;5048056;28;19985;-63
2021/11/29 01:31:14;;;;;;;;;;;;;;;-144.99;100.00;52668.22;5047998;28;20392;-63
2021/11/29 01:33:40;;;;;;;;;;;;;;;-144.99;100.00;52660.09;5047870;28;20001;-63
2021/11/29 01:36:08;;;;;;;;;;;;;;;-144.99;100.00;52647.84;5049699;28;19977;-63
2021/11/29 01:38:34;;;;;;;;;;;;;;;-144.99;100.00;52619.31;5043696;28;20453;-62
2021/11/29 01:41:01;;;;;;;;;;;;;;;-144.99;100.00;52668.22;5048010;28;20043;-63
2021/11/29 01:43:29;;;;;;;;;;;;;;;-144.99;100.00;52692.69;5047334;28;20419;-63
2021/11/29 01:45:56;;;;;;;;;;;;;;;-144.99;100.00;52639.69;5047386;28;19985;-65
2021/11/29 01:48:23;;;;;;;;;;;;;;;-144.99;100.00;52670.28;5046875;28;20240;-63
2021/11/29 01:50:52;;;;;;;;;;;;;;;-144.99;100.00;52696.78;5047709;28;19995;-63
2021/11/29 01:53:19;;;;;;;;;;;;;;;-144.99;100.00;52682.50;5046504;28;20058;-63
2021/11/29 01:55:46;;;;;;;;;;;;;;;-144.99;100.00;52680.47;5045195;28;20013;-63
2021/11/29 01:58:13;;;;;;;;;;;;;;;-144.99;100.00;52627.47;5045179;28;20020;-63
2021/11/29 02:00:44;;;;;;;;;;;;;;;-144.99;100.00;52647.84;5047448;28;19988;-64
2021/11/29 02:03:12;;;;;;;;;;;;;;;-144.99;100.00;52647.84;5047406;28;19989;-63
2021/11/29 02:05:38;;;;;;;;;;;;;;;-144.99;100.00;52702.88;5048577;28;20003;-62
2021/11/29 02:08:05;;;;;;;;;;;;;;;-144.99;100.00;52641.72;5046500;28;19981;-63
2021/11/29 02:10:33;;;;;;;;;;;;;;;-144.99;100.00;52692.69;5047243;28;20054;-62
2021/11/29 02:12:59;;;;;;;;;;;;;;;-144.99;100.00;52664.16;5047036;28;20001;-65
2021/11/29 02:15:26;;;;;;;;;;;;;;;-144.99;100.00;52664.16;5047409;28;20346;-63
2021/11/29 02:17:54;;;;;;;;;;;;;;;-144.99;100.00;52656.00;5044532;28;19978;-65
2021/11/29 02:20:21;;;;;;;;;;;;;;;-144.99;100.00;52680.47;5045190;28;20027;-65
2021/11/29 02:22:50;;;;;;;;;;;;;;;-144.99;100.00;52672.31;5045137;28;20684;-65
2021/11/29 02:25:19;;;;;;;;;;;;;;;-144.99;100.00;52664.16;5045160;28;19977;-64
2021/11/29 02:27:47;;;;;;;;;;;;;;;-144.99;100.00;52688.63;5050067;28;20076;-67
2021/11/29 02:30:14;;;;;;;;;;;;;;;-144.99;100.00;52656.00;5052108;28;20003;-66
2021/11/29 02:32:41;;;;;;;;;;;;;;;-144.99;100.00;52647.84;5053373;28;22654;-65
2021/11/29 02:35:08;;;;;;;;;;;;;;;-144.99;100.00;52664.16;5051683;28;19978;-62
2021/11/29 02:37:34;;;;;;;;;;;;;;;-144.99;100.00;52635.63;5050521;28;19981;-62
2021/11/29 02:40:02;;;;;;;;;;;;;;;-144.99;100.00;52641.72;5045060;28;19981;-62
2021/11/29 02:42:29;;;;;;;;;;;;;;;-144.99;100.00;52668.22;5047162;28;20000;-61
2021/11/29 02:44:55;;;;;;;;;;;;;;;-144.99;100.00;52656.00;5046560;28;19989;-61
2021/11/29 02:47:22;;;;;;;;;;;;;;;-144.99;100.00;52660.09;5047043;28;20416;-60
2021/11/29 02:49:48;;;;;;;;;;;;;;;-144.99;100.00;52676.38;5043914;28;19981;-66
2021/11/29 02:52:16;;;;;;;;;;;;;;;-144.99;100.00;52680.47;5047196;28;19996;-66
2021/11/29 02:54:44;;;;;;;;;;;;;;;-144.99;100.00;52664.16;5046350;28;20051;-67
2021/11/29 02:57:13;;;;;;;;;;;;;;;-144.99;100.00;52688.63;5046941;28;20215;-65
2021/11/29 02:59:40;;;;;;;;;;;;;;;-144.99;100.00;52700.84;4697223;28;10000032;-65
2021/11/29 03:02:07;;;;;;;;;;;;;;;-144.99;100.00;52656.00;5046414;28;20050;-65
2021/11/29 03:04:34;;;;;;;;;;;;;;;-144.99;100.00;52651.94;5046593;28;20037;-66
2021/11/29 03:07:01;;;;;;;;;;;;;;;-144.99;100.00;52651.94;5050791;28;20036;-66
2021/11/29 03:09:28;;;;;;;;;;;;;;;-144.99;100.00;52676.38;5053355;22;20051;-64
2021/11/29 03:11:55;;;;;;;;;;;;;;;-144.99;100.00;52664.16;5029937;28;20043;-65
2021/11/29 03:14:23;;;;;;;;;;;;;;;-144.99;100.00;52696.78;5030709;28;20048;-65
2021/11/29 03:16:52;;;;;;;;;;;;;;;-144.99;100.00;52686.59;5031805;28;20016;-65
2021/11/29 03:19:19;;;;;;;;;;;;;;;-144.99;100.00;52682.50;5030526;28;19977;-65
2021/11/29 03:21:46;;;;;;;;;;;;;;;-144.99;100.00;52684.53;5031131;28;20024;-65
2021/11/29 03:24:12;;;;;;;;;;;;;;;-144.99;100.00;52651.94;5031749;28;20438;-65
2021/11/29 03:26:39;;;;;;;;;;;;;;;-144.99;100.00;52670.28;5031861;28;20039;-65
2021/11/29 03:29:07;;;;;;;;;;;;;;;-144.99;100.00;52680.47;5031155;28;20051;-66
2021/11/29 03:31:36;;;;;;;;;;;;;;;-144.99;100.00;52668.22;5029905;28;20036;-66
2021/11/29 03:34:03;;;;;;;;;;;;;;;-144.99;100.00;52704.94;5030799;28;20409;-65
2021/11/29 03:36:32;;;;;;;;;;;;;;;-144.99;100.00;52684.53;5031533;28;20365;-66
2021/11/29 03:38:59;;;;;;;;;;;;;;;-144.99;100.00;52651.94;5031212;28;19981;-70
2021/11/29 03:41:26;;;;;;;;;;;;;;;-144.99;100.00;52668.22;5024066;28;20423;-66
2021/11/29 03:43:52;;;;;;;;;;;;;;;-144.99;100.00;52639.69;5030455;28;19997;-65
2021/11/29 03:46:19;;;;;;;;;;;;;;;-144.99;100.00;52668.22;5029354;28;19973;-65
2021/11/29 03:48:47;;;;;;;;;;;;;;;-144.99;100.00;52688.63;5028401;28;19981;-65
2021/11/29 03:51:14;;;;;;;;;;;;;;;-144.99;100.00;52688.63;5031209;28;19977;-65
2021/11/29 03:53:41;;;;;;;;;;;;;;;-144.99;100.00;52656.00;5030477;28;19999;-66
2021/11/29 03:56:07;;;;;;;;;;;;;;;-144.99;100.00;52688.63;5031053;28;20073;-64
2021/11/29 03:58:34;;;;;;;;;;;;;;;-144.99;100.00;52684.53;5026439;28;20009;-65
2021/11/29 04:01:01;;;;;;;;;;;;;;;-144.99;100.00;52623.38;5029116;28;20036;-68
2021/11/29 04:03:27;;;;;;;;;;;;;;;-144.99;100.00;52698.81;5031280;28;20421;-64
2021/11/29 04:05:57;;;;;;;;;;;;;;;-144.99;100.00;52696.78;5030145;28;20020;-65
2021/11/29 04:08:23;;;;;;;;;;;;;;;-144.99;100.00;52633.59;5030528;28;20017;-63
2021/11/29 04:10:50;;;;;;;;;;;;;;;-144.99;100.00;52637.66;5029008;28;19981;-64
2021/11/29 04:13:16;;;;;;;;;;;;;;;-144.99;100.00;52692.69;5030214;28;20059;-62
2021/11/29 04:15:43;;;;;;;;;;;;;;;-144.99;100.00;52676.38;5030123;28;20009;-62
2021/11/29 04:18:09;;;;;;;;;;;;;;;-144.99;100.00;52635.63;5029345;28;19981;-62
2021/11/29 04:20:36;;;;;;;;;;;;;;;-144.99;100.00;52651.94;5028226;28;19983;-62
2021/11/29 04:23:04;;;;;;;;;;;;;;;-144.99;100.00;52696.78;5030052;28;20002;-63
2021/11/29 04:25:37;;;;;;;;;;;;;;;-144.99;100.00;52660.09;5028292;28;19988;-63
2021/11/29 04:28:04;;;;;;;;;;;;;;;-144.99;100.00;52641.72;5030203;28;20396;-61
2021/11/29 04:30:31;;;;;;;;;;;;;;;-144.99;100.00;52647.84;5028344;28;20108;-66
2021/11/29 04:32:57;;;;;;;;;;;;;;;-144.99;100.00;52676.38;5029906;28;19997;-65
2021/11/29 04:35:25;;;;;;;;;;;;;;;-144.99;100.00;52696.78;5028996;28;19970;-65
2021/11/29 04:37:51;;;;;;;;;;;;;;;-144.99;100.00;52688.63;5030358;28;20000;-68
2021/11/29 04:40:20;;;;;;;;;;;;;;;-144.99;100.00;52688.63;5029064;28;20020;-66
2021/11/29 04:42:46;;;;;;;;;;;;;;;-144.99;100.00;52656.00;5026907;28;20485;-61
2021/11/29 04:45:13;;;;;;;;;;;;;;;-144.99;100.00;52704.94;5029427;28;19986;-62
2021/11/29 04:47:39;;;;;;;;;;;;;;;-144.99;100.00;52682.50;5030021;28;19977;-61
2021/11/29 04:50:07;;;;;;;;;;;;;;;-144.99;100.00;52660.09;5029365;28;19989;-63
2021/11/29 04:52:33;;;;;;;;;;;;;;;-144.99;100.00;52664.16;5028010;28;19981;-61
2021/11/29 04:55:00;;;;;;;;;;;;;;;-144.99;100.00;52666.19;5029888;28;19994;-62
2021/11/29 04:57:28;;;;;;;;;;;;;;;-144.99;100.00;52651.94;5029869;28;19973;-61
2021/11/29 04:59:55;;;;;;;;;;;;;;;-144.99;100.00;52635.63;5029956;28;19977;-60
2021/11/29 05:02:22;;;;;;;;;;;;;;;-144.99;100.00;52686.59;5027894;28;20028;-60
2021/11/29 05:04:48;;;;;;;;;;;;;;;-144.99;100.00;52668.22;5027043;28;20051;-58
2021/11/29 05:07:15;;;;;;;;;;;;;;;-144.99;100.00;52680.47;5029591;28;19974;-58
2021/11/29 05:09:42;;;;;;;;;;;;;;;-144.99;100.00;52668.22;5029507;28;20047;-59
2021/11/29 05:12:09;;;;;;;;;;;;;;;-144.99;100.00;52656.00;5026787;28;20000;-59
2021/11/29 05:14:37;;;;;;;;;;;;;;;-144.99;100.00;52647.84;5027614;28;19998;-59
2021/11/29 05:17:04;;;;;;;;;;;;;;;-144.99;100.00;52700.84;5029434;28;20015;-61
2021/11/29 05:19:30;;;;;;;;;;;;;;;-144.99;100.00;52664.16;5035345;28;19982;-63
2021/11/29 05:21:57;;;;;;;;;;;;;;;-144.99;100.00;52651.94;5029179;28;20032;-67
2021/11/29 05:24:23;;;;;;;;;;;;;;;-144.99;100.00;52684.53;5022086;28;19993;-64
2021/11/29 05:26:50;;;;;;;;;;;;;;;-144.99;100.00;52692.69;5027303;28;19981;-65
2021/11/29 05:29:17;;;;;;;;;;;;;;;-144.99;100.00;52704.94;5029279;28;20057;-65
2021/11/29 05:31:45;;;;;;;;;;;;;;;-144.99;100.00;52680.47;5029630;28;20009;-65
2021/11/29 05:34:12;;;;;;;;;;;;;;;-144.99;100.00;52660.09;5025871;28;20195;-65
2021/11/29 05:36:38;;;;;;;;;;;;;;;-144.99;100.00;52680.47;5029857;28;19977;-65
2021/11/29 05:39:05;;;;;;;;;;;;;;;-144.99;100.00;52664.16;5029648;28;19981;-65
2021/11/29 05:41:32;;;;;;;;;;;;;;;-144.99;100.00;52635.63;5029712;28;20354;-64
2021/11/29 05:43:58;;;;;;;;;;;;;;;-144.99;100.00;52692.69;5027048;28;20486;-63
2021/11/29 05:46:25;;;;;;;;;;;;;;;-144.99;100.00;52680.47;5026508;28;19978;-63
2021/11/29 05:48:56;;;;;;;;;;;;;;;-144.99;100.00;52672.31;5029429;28;20006;-63
2021/11/29 05:51:22;;;;;;;;;;;;;;;-144.99;100.00;52635.63;5029685;28;20156;-69
2021/11/29 05:53:49;;;;;;;;;;;;;;;-144.99;100.00;52631.53;5027323;28;20407;-69
2021/11/29 05:56:15;;;;;;;;;;;;;;;-144.99;100.00;52672.31;5029596;28;19978;-69
2021/11/29 05:58:42;;;;;;;;;;;;;;;-144.99;100.00;52668.22;5029073;28;20023;-69
2021/11/29 06:01:08;;;;;;;;;;;;;;;-144.99;100.00;52680.47;5024255;28;19977;-69
2021/11/29 06:03:39;;;;;;;;;;;;;;;-144.99;100.00;52694.72;4466028;28;10000823;-70
2021/11/29 06:06:07;;;;;;;;;;;;;;;-144.99;100.00;52660.09;5026016;28;19983;-68
2021/11/29 06:08:33;;;;;;;;;;;;;;;-144.99;100.00;52686.59;5026485;28;19985;-68
2021/11/29 06:11:00;;;;;;;;;;;;;;;-144.99;100.00;52631.53;5026055;28;20043;-69
2021/11/29 06:13:27;;;;;;;;;;;;;;;-144.99;100.00;52647.84;5023720;28;19972;-69
2021/11/29 06:15:53;;;;;;;;;;;;;;;-144.99;100.00;52676.38;5025492;28;20413;-69
2021/11/29 06:18:20;;;;;;;;;;;;;;;-144.99;100.00;52692.69;5025948;28;20099;-69
2021/11/29 06:20:46;;;;;;;;;;;;;;;-144.99;100.00;52670.28;5026130;28;20035;-70
2021/11/29 06:23:14;;;;;;;;;;;;;;;-144.99;100.00;52631.53;5024573;28;20047;-70
2021/11/29 06:25:41;;;;;;;;;;;;;;;-144.99;100.00;52664.16;5024167;28;19989;-69
2021/11/29 06:28:08;;;;;;;;;;;;;;;-144.99;100.00;52643.78;5026096;28;19982;-70
2021/11/29 06:30:35;;;;;;;;;;;;;;;-144.99;100.00;52696.78;5025506;28;20334;-70
2021/11/29 06:33:01;;;;;;;;;;;;;;;-144.99;100.00;52668.22;5024878;28;19998;-70
2021/11/29 06:35:28;;;;;;;;;;;;;;;-144.99;100.00;52658.03;5019886;28;19997;-70
2021/11/29 06:37:59;;;;;;;;;;;;;;;-144.99;100.00;52668.22;5024196;28;19965;-69
2021/11/29 06:40:27;;;;;;;;;;;;;;;-144.99;100.00;52656.00;5024766;28;20417;-69
2021/11/29 06:42:54;;;;;;;;;;;;;;;-144.99;100.00;52664.16;5025293;28;20079;-69
2021/11/29 06:45:21;;;;;;;;;;;;;;;-144.99;100.00;52680.47;5023001;28;20000;-67
2021/11/29 06:47:47;;;;;;;;;;;;;;;-144.99;100.00;52670.28;5024961;28;20017;-68
2021/11/29 06:50:14;;;;;;;;;;;;;;;-144.99;100.00;52668.22;5024285;28;20386;-68
2021/11/29 06:52:41;;;;;;;;;;;;;;;-144.99;100.00;52651.94;5025297;28;19985;-69
2021/11/29 06:55:08;;;;;;;;;;;;;;;-144.99;100.00;52668.22;5023189;28;20366;-68
2021/11/29 06:57:36;;;;;;;;;;;;;;;-144.99;100.00;52680.47;5020843;28;20065;-68
2021/11/29 07:00:03;;;;;;;;;;;;;;;-144.99;100.00;52717.16;5025268;28;19978;-69
2021/11/29 07:02:30;;;;;;;;;;;;;;;-144.99;100.00;52653.97;5025156;28;19981;-69
2021/11/29 07:04:56;;;;;;;;;;;;;;;-144.99;100.00;52682.50;5020973;28;20035;-69
2021/11/29 07:07:23;;;;;;;;;;;;;;;-144.99;100.00;52692.69;5025208;28;20072;-70
2021/11/29 07:09:50;;;;;;;;;;;;;;;-144.99;100.00;52684.53;5025398;28;20024;-68
2021/11/29 07:12:16;;;;;;;;;;;;;;;-144.99;100.00;52660.09;5025341;28;20345;-68
2021/11/29 07:14:44;;;;;;;;;;;;;;;-144.99;100.00;52631.53;5023064;28;20005;-68
2021/11/29 07:17:11;;;;;;;;;;;;;;;-144.99;100.00;52700.84;5022332;28;19973;-67
2021/11/29 07:19:38;;;;;;;;;;;;;;;-144.99;100.00;52684.53;5024221;28;20016;-68
2021/11/29 07:22:05;;;;;;;;;;;;;;;-144.99;100.00;52692.69;5023016;28;19982;-68
2021/11/29 07:24:32;;;;;;;;;;;;;;;-144.99;100.00;52656.00;5022698;28;19992;-68
2021/11/29 07:26:59;;;;;;;;;;;;;;;-144.99;100.00;52639.69;5022253;28;19989;-68
2021/11/29 07:29:25;;;;;;;;;;;;;;;-144.99;100.00;52643.78;5020112;28;20294;-69
2021/11/29 07:31:53;;;;;;;;;;;;;;;-144.99;100.00;52651.94;5023146;28;20004;-68
2021/11/29 07:34:20;;;;;;;;;;;;;;;-144.99;100.00;52641.72;5022370;28;20564;-68
2021/11/29 07:36:46;;;;;;;;;;;;;;;-144.99;100.00;52639.69;5023818;28;20229;-68
2021/11/29 07:39:13;;;;;;;;;;;;;;;-144.99;100.00;52660.09;5023283;28;20362;-68
2021/11/29 07:41:39;;;;;;;;;;;;;;;-144.99;100.00;52662.13;5023550;28;19982;-68
2021/11/29 07:44:06;;;;;;;;;;;;;;;-144.99;100.00;52664.16;5023823;28;20542;-68
2021/11/29 07:46:32;;;;;;;;;;;;;;;-144.99;100.00;52664.16;5024887;28;19978;-70
2021/11/29 07:49:00;;;;;;;;;;;;;;;-144.99;100.00;52680.47;5024195;28;19985;-68
2021/11/29 07:51:27;;;;;;;;;;;;;;;-144.99;100.00;52643.78;5023683;28;20333;-69
2021/11/29 07:53:54;;;;;;;;;;;;;;;-144.99;100.00;52666.19;5028294;28;19998;-68
2021/11/29 07:56:20;;;;;;;;;;;;;;;-144.99;100.00;52684.53;5028452;28;20086;-68
2021/11/29 07:58:47;;;;;;;;;;;;;;;-144.99;100.00;52651.94;5028402;28;20051;-68
2021/11/29 08:01:13;;;;;;;;;;;;;;;-144.99;100.00;52662.13;5027114;28;20270;-68
2021/11/29 08:03:40;;;;;;;;;;;;;;;-144.99;100.00;52627.47;5026365;28;19994;-68
2021/11/29 08:06:08;;;;;;;;;;;;;;;-144.99;100.00;52656.00;5027719;28;20035;-68
2021/11/29 08:08:35;;;;;;;;;;;;;;;-144.99;100.00;52668.22;5019457;28;20001;-68
2021/11/29 08:11:01;;;;;;;;;;;;;;;-144.99;100.00;52641.72;5028262;28;20272;-68
2021/11/29 08:13:28;;;;;;;;;;;;;;;-144.99;100.00;52684.53;5025774;28;19989;-69
2021/11/29 08:15:54;;;;;;;;;;;;;;;-144.99;100.00;52635.63;5027600;28;20096;-68
2021/11/29 08:18:21;;;;;;;;;;;;;;;-144.99;100.00;52680.47;5026303;28;20028;-68
2021/11/29 08:20:48;;;;;;;;;;;;;;;-144.99;100.00;52664.16;5026282;28;20252;-68
2021/11/29 08:23:16;;;;;;;;;;;;;;;-144.99;100.00;52664.16;5025073;28;20000;-69
2021/11/29 08:25:43;;;;;;;;;;;;;;;-144.99;100.00;52635.63;5027233;28;19978;-69
2021/11/29 08:28:10;;;;;;;;;;;;;;;-144.99;100.00;52680.47;5027999;28;20489;-69
2021/11/29 08:30:37;;;;;;;;;;;;;;;-144.99;100.00;52641.72;5025502;28;20040;-68
2021/11/29 08:33:03;;;;;;;;;;;;;;;-144.99;100.00;52641.72;5027317;28;20086;-68
2021/11/29 08:35:30;;;;;;;;;;;;;;;-144.99;100.00;52643.78;5026943;28;20032;-68
2021/11/29 08:37:58;;;;;;;;;;;;;;;-144.99;100.00;52660.09;5024445;28;20032;-68
2021/11/29 08:40:29;;;;;;;;;;;;;;;-144.99;100.00;52658.03;5027059;28;20366;-68
2021/11/29 08:42:56;;;;;;;;;;;;;;;-144.99;100.00;52668.22;5027900;28;20122;-68
2021/11/29 08:45:22;;;;;;;;;;;;;;;-144.99;100.00;52625.44;5022909;28;20083;-68
2021/11/29 08:47:49;;;;;;;;;;;;;;;-144.99;100.00;52692.69;5027787;28;20326;-69
2021/11/29 08:50:16;;;;;;;;;;;;;;;-144.99;100.00;52706.97;5024513;28;20055;-69
2021/11/29 08:52:44;;;;;;;;;;;;;;;-144.99;100.00;52656.00;5027286;28;19989;-69
2021/11/29 08:55:11;;;;;;;;;;;;;;;-144.99;100.00;52643.78;5026905;28;19989;-69
2021/11/29 08:57:39;;;;;;;;;;;;;;;-144.99;100.00;52651.94;5027569;28;19981;-69
2021/11/29 09:00:07;;;;;;;;;;;;;;;-144.99;100.00;52664.16;5025814;28;19985;-71
2021/11/29 09:02:33;;;;;;;;;;;;;;;-144.99;100.00;52668.22;5026741;28;19981;-68
2021/11/29 09:05:00;;;;;;;;;;;;;;;-144.99;100.00;52656.00;5026225;28;19986;-69
2021/11/29 09:07:26;;;;;;;;;;;;;;;-144.99;100.00;52651.94;5027062;28;20439;-69
2021/11/29 09:09:53;;;;;;;;;;;;;;;-144.99;100.00;52682.50;5025215;28;20272;-69
2021/11/29 09:12:19;;;;;;;;;;;;;;;-144.99;100.00;52594.84;5026747;28;19977;-69
2021/11/29 09:14:47;;;;;;;;;;;;;;;-144.99;100.00;52635.63;5026514;28;20044;-68
2021/11/29 09:17:14;;;;;;;;;;;;;;;-144.99;100.00;52643.78;5027228;28;20028;-70
2021/11/29 09:19:41;;;;;;;;;;;;;;;-144.99;100.00;52619.31;5028642;28;20035;-70
2021/11/29 09:22:07;;;;;;;;;;;;;;;-144.99;100.00;52680.47;5026956;28;20035;-69
2021/11/29 09:24:34;;;;;;;;;;;;;;;-144.99;100.00;52651.94;5027277;28;20029;-69
2021/11/29 09:27:01;;;;;;;;;;;;;;;-144.99;100.00;52619.31;5025471;28;20508;-69
2021/11/29 09:29:28;;;;;;;;;;;;;;;-144.99;100.00;52639.69;5026753;28;19984;-69
2021/11/29 09:31:56;;;;;;;;;;;;;;;-144.99;100.00;52643.78;5026713;28;19978;-69
2021/11/29 09:34:23;;;;;;;;;;;;;;;-144.99;100.00;52627.47;5021615;28;20012;-69
2021/11/29 09:36:50;;;;;;;;;;;;;;;-144.99;100.00;52633.59;5021245;28;19997;-69
2021/11/29 09:39:17;;;;;;;;;;;;;;;-144.99;100.00;52651.94;5026396;28;19981;-69
2021/11/29 09:41:43;;;;;;;;;;;;;;;-144.99;100.00;52611.16;5026167;28;20524;-69
2021/11/29 09:44:10;;;;;;;;;;;;;;;-144.99;100.00;52621.34;5021793;28;19994;-69
2021/11/29 09:46:36;;;;;;;;;;;;;;;-144.99;100.00;52629.50;5025392;28;20450;-70
2021/11/29 09:49:04;;;;;;;;;;;;;;;-144.99;100.00;52603.00;5024286;28;20488;-69
2021/11/29 09:51:31;;;;;;;;;;;;;;;-144.99;100.00;52668.22;5025892;28;20055;-69
2021/11/29 09:53:58;;;;;;;;;;;;;;;-144.99;100.00;52643.78;5024382;28;19994;-70
2021/11/29 09:56:25;;;;;;;;;;;;;;;-144.99;100.00;52660.09;5026321;28;20042;-69
2021/11/29 09:58:51;;;;;;;;;;;;;;;-144.99;100.00;52627.47;5026465;28;20435;-70
2021/11/29 10:01:19;;;;;;;;;;;;;;;-144.99;100.00;52594.84;5026854;28;20166;-70
2021/11/29 10:03:45;;;;;;;;;;;;;;;-144.99;100.00;52627.47;5024426;28;19993;-70
2021/11/29 10:06:13;;;;;;;;;;;;;;;-144.99;100.00;52619.31;5025852;28;19986;-70
2021/11/29 10:08:40;;;;;;;;;;;;;;;-144.99;100.00;52629.50;5025194;28;20047;-70
2021/11/29 10:11:11;;;;;;;;;;;;;;;-144.99;100.00;52611.16;5025745;28;19974;-70
2021/11/29 10:13:48;;;;;;;;;;;;;;;-144.99;100.00;52633.59;5025248;28;20469;-70
2021/11/29 10:16:29;;;;;;;;;;;;;;;-144.99;100.00;52607.09;5023479;28;20178;-70
2021/11/29 10:18:55;;;;;;;;;;;;;;;-144.99;100.00;52672.31;5023727;28;19985;-70
2021/11/29 10:21:23;;;;;;;;;;;;;;;-144.99;100.00;52598.94;5025456;28;20071;-70
2021/11/29 10:23:51;;;;;;;;;;;;;;;-144.99;100.00;52613.19;5025829;28;20001;-70
2021/11/29 10:26:20;;;;;;;;;;;;;;;-144.99;100.00;52574.47;5012887;28;19974;-70
2021/11/29 10:28:47;;;;;;;;;;;;;;;-144.99;100.00;52578.53;5025366;28;20410;-70
2021/11/29 10:31:16;;;;;;;;;;;;;;;-144.99;100.00;52594.84;5025773;28;20381;-70
2021/11/29 10:33:46;;;;;;;;;;;;;;;-144.99;100.00;52592.81;5025669;28;20067;-70
2021/11/29 10:36:15;;;;;;;;;;;;;;;-144.99;100.00;52631.53;5022435;28;19993;-70
2021/11/29 10:38:45;;;;;;;;;;;;;;;-144.99;100.00;52623.38;5022178;28;19989;-70
2021/11/29 10:41:12;;;;;;;;;;;;;;;-144.99;100.00;52643.78;5024251;28;20446;-70
2021/11/29 10:43:39;;;;;;;;;;;;;;;-144.99;100.00;52631.53;5025277;28;19993;-70
2021/11/29 10:46:19;;;;;;;;;;;;;;;-144.99;100.00;52603.00;5022232;28;19977;-70
2021/11/29 10:48:45;;;;;;;;;;;;;;;-144.99;100.00;52619.31;5024839;28;20608;-70
2021/11/29 10:51:14;;;;;;;;;;;;;;;-144.99;100.00;52609.13;5025304;28;20074;-70
2021/11/29 10:53:49;;;;;;;;;;;;;;;-144.99;100.00;52607.09;5025652;28;20294;-70
2021/11/29 10:56:16;;;;;;;;;;;;;;;-144.99;100.00;52621.34;5021115;28;20278;-70
2021/11/29 10:58:43;;;;;;;;;;;;;;;-144.99;100.00;52631.53;5025032;28;20753;-70
2021/11/29 11:01:10;;;;;;;;;;;;;;;-144.99;100.00;52613.19;5019836;28;19977;-70
2021/11/29 11:03:49;;;;;;;;;;;;;;;-144.99;100.00;52605.03;5025613;28;20004;-71
2021/11/29 11:06:16;;;;;;;;;;;;;;;-144.99;100.00;52598.94;5020781;28;19960;-70
2021/11/29 11:08:42;;;;;;;;;;;;;;;-144.99;100.00;52639.69;5025262;28;20137;-71
2021/11/29 11:11:23;;;;;;;;;;;;;;;-144.99;100.00;52627.47;5025205;28;19977;-71
2021/11/29 11:14:02;;;;;;;;;;;;;;;-144.99;100.00;52590.78;5024261;28;20501;-71
2021/11/29 11:16:39;;;;;;;;;;;;;;;-144.99;100.00;52611.16;5024081;28;19993;-71
2021/11/29 11:19:05;;;;;;;;;;;;;;;-144.99;100.00;52641.72;5024961;28;20437;-71
2021/11/29 11:21:34;;;;;;;;;;;;;;;-144.99;100.00;52635.63;5025381;28;20012;-71
2021/11/29 11:24:18;;;;;;;;;;;;;;;-144.99;100.00;52619.31;5021384;28;20074;-71
2021/11/29 11:26:46;;;;;;;;;;;;;;;-144.99;100.00;52643.78;5027814;28;19982;-70
2021/11/29 11:29:14;;;;;;;;;;;;;;;-144.99;100.00;52607.09;5028972;28;19978;-71
2021/11/29 11:31:40;;;;;;;;;;;;;;;-144.99;100.00;52615.25;5023927;28;19989;-71
2021/11/29 11:34:08;;;;;;;;;;;;;;;-144.99;99.16;52639.69;5028418;28;20539;-71
2021/11/29 11:36:35;;;;;;;;;;;;;;;-144.99;98.96;52594.84;5023065;28;19997;-71
2021/11/29 11:39:05;;;;;;;;;;;;;;;-144.99;98.10;52623.38;5023220;28;19985;-71
2021/11/29 11:41:32;;;;;;;;;;;;;;;-144.99;98.42;52639.69;5029419;28;19978;-71
2021/11/29 11:43:59;;;;;;;;;;;;;;;-144.99;98.44;52598.94;5029404;28;20394;-71
2021/11/29 11:46:27;;;;;;;;;;;;;;;-144.99;99.15;52594.84;5028940;28;20511;-71
2021/11/29 11:48:54;;;;;;;;;;;;;;;-144.99;99.31;52611.16;5023704;28;20465;-71
2021/11/29 11:51:21;;;;;;;;;;;;;;;-144.99;99.52;52590.78;5027536;28;19989;-71
2021/11/29 11:53:48;;;;;;;;;;;;;;;-144.99;99.85;52582.63;5028593;28;20048;-70
2021/11/29 11:56:14;;;;;;;;;;;;;;;-144.99;100.00;52656.00;5029061;28;20043;-70
2021/11/29 11:58:47;;;;;;;;;;;;;;;-144.99;99.33;52611.16;5027652;28;20453;-70
2021/11/29 12:01:16;;;;;;;;;;;;;;;-144.99;98.55;52580.59;5028700;28;20076;-69
2021/11/29 12:03:47;;;;;;;;;;;;;;;-144.99;97.79;52619.31;5023683;28;20041;-72
2021/11/29 12:06:16;;;;;;;;;;;;;;;-144.99;97.48;52607.09;5028512;28;20020;-71
2021/11/29 12:08:46;;;;;;;;;;;;;;;-144.99;96.77;52615.25;5025327;28;19978;-71
2021/11/29 12:11:33;;;;;;;;;;;;;;;-144.99;96.66;52586.69;5023873;28;19977;-69
2021/11/29 12:14:04;;;;;;;;;;;;;;;-144.99;100.00;52454.22;5027026;28;20581;-71
2021/11/29 12:16:31;;;;;;;;;;;;;;;-144.99;100.00;52407.31;5028024;28;20005;-71
2021/11/29 12:19:00;;;;;;;;;;;;;;;-144.99;86.63;52517.41;5027014;28;20036;-71